createdAt,value
2024-01-30T00:00:56.551Z,102072.06
2024-01-30T00:03:25.086Z,102072.06
2024-01-30T00:05:55.577Z,102073.91
2024-01-30T00:08:25.401Z,102077.53
2024-01-30T00:10:53.920Z,102073.16
2024-01-30T00:13:22.527Z,102073.22
2024-01-30T00:15:51.277Z,102067.94
2024-01-30T00:18:21.219Z,102073.34
2024-01-30T00:20:49.695Z,102064.53
2024-01-30T00:23:18.155Z,102076.16
2024-01-30T00:25:46.642Z,102077.25
2024-01-30T00:28:15.144Z,102073.81
2024-01-30T00:30:43.702Z,102071.16
2024-01-30T00:33:12.342Z,102066.91
2024-01-30T00:35:42.236Z,102068.88
2024-01-30T00:38:10.772Z,102070.75
2024-01-30T00:40:39.246Z,102064.66
2024-01-30T00:43:07.813Z,102066.56
2024-01-30T00:45:36.913Z,102062.13
2024-01-30T00:48:06.262Z,102057.84
2024-01-30T00:50:34.880Z,102060.56
2024-01-30T00:53:05.096Z,102048.44
2024-01-30T00:55:33.560Z,102053.72
2024-01-30T00:58:02.080Z,102061.84
2024-01-30T01:00:30.677Z,102074.63
2024-01-30T01:02:59.236Z,102070.44
2024-01-30T01:05:28.011Z,102080.19
2024-01-30T01:07:56.487Z,102074.09
2024-01-30T01:10:26.449Z,102079.47
2024-01-30T01:12:55.023Z,102069.75
2024-01-30T01:15:23.508Z,102079.38
2024-01-30T01:17:52.043Z,102075.03
2024-01-30T01:20:20.561Z,102071.44
2024-01-30T01:22:49.028Z,102070.63
2024-01-30T01:25:17.984Z,102074.19
2024-01-30T01:27:52.730Z,102074.19
2024-01-30T01:30:22.915Z,102074.03
2024-01-30T01:32:56.213Z,102067.88
2024-01-30T01:35:25.709Z,102072.81
2024-01-30T01:37:56.067Z,102078.91
2024-01-30T01:40:26.105Z,102070.97
2024-01-30T01:42:56.844Z,102066.44
2024-01-30T01:45:25.483Z,102062.06
2024-01-30T01:47:54.824Z,102063.03
2024-01-30T01:50:24.185Z,102058.66
2024-01-30T01:52:53.895Z,102050.72
2024-01-30T01:55:25.931Z,102052.63
2024-01-30T01:57:56.583Z,102051.75
2024-01-30T02:00:25.680Z,102052.69
2024-01-30T02:02:56.472Z,102047.44
2024-01-30T02:05:26.004Z,102044.81
2024-01-30T02:07:54.965Z,102044.81
2024-01-30T02:10:23.636Z,102044.81
2024-01-30T02:12:52.365Z,102043.13
2024-01-30T02:15:22.400Z,102040.47
2024-01-30T02:17:50.908Z,102041.41
2024-01-30T02:20:19.484Z,102045.84
2024-01-30T02:22:50.384Z,102037.13
2024-01-30T02:25:19.007Z,102034.56
2024-01-30T02:27:47.555Z,102028.34
2024-01-30T02:30:16.278Z,102026.63
2024-01-30T02:32:44.780Z,102015.09
2024-01-30T02:35:13.325Z,102012.44
2024-01-30T02:37:41.864Z,102017.75
2024-01-30T02:40:12.283Z,102008.94
2024-01-30T02:42:41.325Z,102013.38
2024-01-30T02:45:11.405Z,102012.44
2024-01-30T02:47:40.470Z,102008.94
2024-01-30T02:50:10.008Z,102005.44
2024-01-30T02:52:38.731Z,102004.50
2024-01-30T02:55:08.095Z,102001.88
2024-01-30T02:57:38.318Z,102006.22
2024-01-30T03:00:10.437Z,101988.63
2024-01-30T03:02:39.144Z,101995.66
2024-01-30T03:05:10.154Z,101988.63
2024-01-30T03:07:38.780Z,101982.47
2024-01-30T03:10:08.110Z,101981.63
2024-01-30T03:12:38.020Z,101985.22
2024-01-30T03:15:07.054Z,101980.75
2024-01-30T03:17:35.583Z,101986.91
2024-01-30T03:20:04.976Z,101982.59
2024-01-30T03:22:33.532Z,101971.22
2024-01-30T03:25:02.076Z,101971.22
2024-01-30T03:27:30.883Z,101973.84
2024-01-30T03:30:00.741Z,101966.84
2024-01-30T03:32:29.521Z,101974.78
2024-01-30T03:34:59.197Z,101974.78
2024-01-30T03:37:27.895Z,101986.31
2024-01-30T03:39:56.492Z,101981.97
2024-01-30T03:42:26.144Z,101988.97
2024-01-30T03:44:56.029Z,101981.22
2024-01-30T03:47:25.895Z,101976.66
2024-01-30T03:49:54.421Z,101972.22
2024-01-30T03:52:23.053Z,101971.38
2024-01-30T03:54:51.725Z,101965.22
2024-01-30T03:57:20.242Z,101965.31
2024-01-30T03:59:48.707Z,101961.81
2024-01-30T04:02:17.282Z,101965.41
2024-01-30T04:04:47.825Z,101963.78
2024-01-30T04:07:16.427Z,101970.84
2024-01-30T04:09:45.093Z,101975.28
2024-01-30T04:12:13.597Z,101978.03
2024-01-30T04:14:42.461Z,101971.03
2024-01-30T04:17:10.962Z,101973.75
2024-01-30T04:19:40.679Z,101973.75
2024-01-30T04:22:10.743Z,101970.22
2024-01-30T04:24:39.328Z,101964.94
2024-01-30T04:27:07.935Z,101970.22
2024-01-30T04:29:36.394Z,101964.13
2024-01-30T04:32:05.135Z,101965.03
2024-01-30T04:34:33.769Z,101963.31
2024-01-30T04:37:02.382Z,101970.50
2024-01-30T04:39:32.238Z,101968.78
2024-01-30T04:42:00.707Z,101967.00
2024-01-30T04:44:29.373Z,101967.06
2024-01-30T04:47:00.128Z,101968.78
2024-01-30T04:49:28.766Z,101965.38
2024-01-30T04:51:57.712Z,101968.94
2024-01-30T04:54:26.848Z,101971.59
2024-01-30T04:56:56.684Z,101963.66
2024-01-30T04:59:25.179Z,101972.53
2024-01-30T05:01:53.973Z,101958.44
2024-01-30T05:04:23.178Z,101949.66
2024-01-30T05:06:51.825Z,101955.91
2024-01-30T05:09:21.242Z,101954.09
2024-01-30T05:11:49.915Z,101958.53
2024-01-30T05:14:20.006Z,101959.41
2024-01-30T05:16:48.730Z,101958.44
2024-01-30T05:19:18.394Z,101959.31
2024-01-30T05:21:46.958Z,101961.94
2024-01-30T05:24:15.467Z,101960.09
2024-01-30T05:26:43.998Z,101963.66
2024-01-30T05:29:12.457Z,101958.38
2024-01-30T05:31:42.306Z,101952.22
2024-01-30T05:34:10.914Z,101957.44
2024-01-30T05:36:39.460Z,101954.81
2024-01-30T05:39:09.319Z,101953.94
2024-01-30T05:41:37.955Z,101963.66
2024-01-30T05:44:06.894Z,101964.53
2024-01-30T05:46:37.499Z,101956.66
2024-01-30T05:49:07.423Z,101952.28
2024-01-30T05:51:35.973Z,101958.53
2024-01-30T05:54:05.558Z,101968.16
2024-01-30T05:56:34.035Z,101959.47
2024-01-30T05:59:02.518Z,101962.13
2024-01-30T06:01:31.353Z,101962.22
2024-01-30T06:03:59.916Z,101954.28
2024-01-30T06:06:30.289Z,101955.28
2024-01-30T06:08:58.795Z,101958.00
2024-01-30T06:11:27.254Z,101952.72
2024-01-30T06:13:55.772Z,101953.59
2024-01-30T06:16:24.396Z,101957.16
2024-01-30T06:18:52.916Z,101951.88
2024-01-30T06:21:21.432Z,101950.16
2024-01-30T06:23:51.281Z,101946.66
2024-01-30T06:26:19.800Z,101948.44
2024-01-30T06:28:48.255Z,101944.16
2024-01-30T06:31:16.881Z,101934.44
2024-01-30T06:33:45.509Z,101944.09
2024-01-30T06:36:14.044Z,101936.16
2024-01-30T06:38:42.620Z,101939.72
2024-01-30T06:41:12.477Z,101934.44
2024-01-30T06:43:40.946Z,101929.16
2024-01-30T06:46:09.494Z,101929.16
2024-01-30T06:48:38.183Z,101918.56
2024-01-30T06:51:06.691Z,101926.50
2024-01-30T06:53:35.253Z,101916.78
2024-01-30T06:56:03.890Z,101919.34
2024-01-30T06:58:34.156Z,101926.50
2024-01-30T07:01:03.178Z,101930.00
2024-01-30T07:03:31.752Z,101929.16
2024-01-30T07:06:00.767Z,101929.16
2024-01-30T07:08:29.262Z,101925.59
2024-01-30T07:11:00.944Z,101931.72
2024-01-30T07:13:30.519Z,101926.34
2024-01-30T07:16:00.754Z,101924.50
2024-01-30T07:18:29.284Z,101928.81
2024-01-30T07:20:57.846Z,101937.53
2024-01-30T07:23:26.354Z,101939.22
2024-01-30T07:25:54.830Z,101936.34
2024-01-30T07:28:23.477Z,101931.91
2024-01-30T07:30:52.069Z,101937.03
2024-01-30T07:33:21.957Z,101934.31
2024-01-30T07:35:50.628Z,101934.22
2024-01-30T07:38:19.141Z,101930.66
2024-01-30T07:40:48.100Z,101943.88
2024-01-30T07:43:16.611Z,101932.25
2024-01-30T07:45:45.144Z,101931.41
2024-01-30T07:48:13.892Z,101933.88
2024-01-30T07:50:43.933Z,101934.66
2024-01-30T07:53:12.439Z,101934.50
2024-01-30T07:55:40.907Z,101936.22
2024-01-30T07:58:09.442Z,101935.25
2024-01-30T08:00:38.438Z,101935.19
2024-01-30T08:03:07.240Z,101935.09
2024-01-30T08:05:35.903Z,101935.88
2024-01-30T08:08:06.228Z,101927.84
2024-01-30T08:10:34.784Z,101933.06
2024-01-30T08:13:03.438Z,101928.44
2024-01-30T08:15:31.955Z,101929.19
2024-01-30T08:18:00.515Z,101928.19
2024-01-30T08:20:29.051Z,101936.91
2024-01-30T08:22:57.557Z,101928.78
2024-01-30T08:25:27.486Z,101928.53
2024-01-30T08:27:56.138Z,101927.44
2024-01-30T08:30:24.781Z,101920.16
2024-01-30T08:32:53.284Z,101920.00
2024-01-30T08:35:22.013Z,101915.09
2024-01-30T08:37:50.567Z,101917.75
2024-01-30T08:40:19.437Z,101920.31
2024-01-30T08:42:49.315Z,101913.97
2024-01-30T08:45:17.914Z,101915.53
2024-01-30T08:47:46.582Z,101918.91
2024-01-30T08:50:15.242Z,101908.94
2024-01-30T08:52:44.721Z,101915.94
2024-01-30T08:55:14.463Z,101914.81
2024-01-30T08:57:43.121Z,101918.06
2024-01-30T09:00:14.470Z,101916.16
2024-01-30T09:02:43.285Z,101923.00
2024-01-30T09:05:12.368Z,101918.38
2024-01-30T09:07:41.007Z,101919.03
2024-01-30T09:10:12.319Z,101915.28
2024-01-30T09:12:42.570Z,101915.75
2024-01-30T09:15:13.394Z,101916.25
2024-01-30T09:17:42.005Z,101917.66
2024-01-30T09:20:11.659Z,101918.19
2024-01-30T09:22:40.353Z,101926.13
2024-01-30T09:25:09.107Z,101928.63
2024-01-30T09:27:37.604Z,101925.13
2024-01-30T09:30:07.109Z,101927.41
2024-01-30T09:32:36.979Z,101926.34
2024-01-30T09:35:06.044Z,101924.47
2024-01-30T09:37:34.756Z,101924.28
2024-01-30T09:40:05.778Z,101926.84
2024-01-30T09:42:37.679Z,101922.19
2024-01-30T09:45:07.615Z,101925.44
2024-01-30T09:47:42.925Z,101924.19
2024-01-30T09:50:13.027Z,101922.41
2024-01-30T09:52:41.874Z,101918.63
2024-01-30T09:55:11.321Z,101925.53
2024-01-30T09:57:40.212Z,101921.81
2024-01-30T10:00:10.301Z,101924.13
2024-01-30T10:02:40.541Z,101915.00
2024-01-30T10:05:10.187Z,101923.72
2024-01-30T10:07:39.020Z,101924.38
2024-01-30T10:10:08.832Z,101918.03
2024-01-30T10:12:37.414Z,101914.31
2024-01-30T10:15:09.336Z,101919.34
2024-01-30T10:17:41.893Z,101918.94
2024-01-30T10:20:11.934Z,101920.47
2024-01-30T10:22:41.856Z,101909.44
2024-01-30T10:25:11.923Z,101911.91
2024-01-30T10:27:42.535Z,101911.63
2024-01-30T10:30:11.563Z,101918.44
2024-01-30T10:32:40.125Z,101908.28
2024-01-30T10:35:10.378Z,101912.44
2024-01-30T10:37:39.146Z,101904.06
2024-01-30T10:40:10.527Z,101896.84
2024-01-30T10:42:41.232Z,101901.00
2024-01-30T10:45:10.772Z,101898.91
2024-01-30T10:47:41.456Z,101904.75
2024-01-30T10:50:13.481Z,101904.47
2024-01-30T10:52:43.277Z,101904.09
2024-01-30T10:55:12.171Z,101898.22
2024-01-30T10:57:41.151Z,101893.56
2024-01-30T11:00:13.072Z,101898.44
2024-01-30T11:02:43.470Z,101891.44
2024-01-30T11:05:14.130Z,101892.31
2024-01-30T11:07:43.481Z,101888.69
2024-01-30T11:10:16.413Z,101886.44
2024-01-30T11:12:47.249Z,101886.22
2024-01-30T11:15:18.468Z,101886.44
2024-01-30T11:17:52.577Z,101881.97
2024-01-30T11:20:27.636Z,101883.25
2024-01-30T11:22:58.492Z,101877.09
2024-01-30T11:25:28.184Z,101881.56
2024-01-30T11:27:58.085Z,101882.28
2024-01-30T11:30:28.017Z,101878.78
2024-01-30T11:33:07.858Z,101872.50
2024-01-30T11:35:40.309Z,101868.03
2024-01-30T11:38:10.471Z,101858.97
2024-01-30T11:40:40.864Z,101863.34
2024-01-30T11:43:11.099Z,101864.94
2024-01-30T11:45:40.467Z,101870.81
2024-01-30T11:48:11.765Z,101859.94
2024-01-30T11:50:42.809Z,101853.53
2024-01-30T11:53:11.749Z,101859.50
2024-01-30T11:55:40.476Z,101861.00
2024-01-30T11:58:09.554Z,101854.50
2024-01-30T12:00:38.181Z,101849.69
2024-01-30T12:03:08.258Z,101850.19
2024-01-30T12:05:37.617Z,101843.63
2024-01-30T12:08:08.486Z,101848.78
2024-01-30T12:10:37.089Z,101842.28
2024-01-30T12:13:06.228Z,101842.53
2024-01-30T12:15:34.964Z,101827.41
2024-01-30T12:18:10.593Z,101828.56
2024-01-30T12:20:39.120Z,101818.19
2024-01-30T12:23:09.068Z,101827.50
2024-01-30T12:25:38.615Z,101823.03
2024-01-30T12:28:07.541Z,101830.53
2024-01-30T12:30:37.957Z,101816.66
2024-01-30T12:33:09.504Z,101825.16
2024-01-30T12:35:43.847Z,101827.56
2024-01-30T12:38:18.923Z,101834.63
2024-01-30T12:40:48.014Z,101848.34
2024-01-30T12:43:24.640Z,101851.38
2024-01-30T12:46:02.044Z,101857.16
2024-01-30T12:48:31.603Z,101861.06
2024-01-30T12:51:00.250Z,101855.50
2024-01-30T12:53:30.220Z,101868.34
2024-01-30T12:55:58.762Z,101850.97
2024-01-30T12:58:27.620Z,101845.03
2024-01-30T13:00:56.930Z,101854.28
2024-01-30T13:03:25.801Z,101850.16
2024-01-30T13:05:54.375Z,101857.66
2024-01-30T13:08:23.473Z,101855.50
2024-01-30T13:10:53.854Z,101860.09
2024-01-30T13:13:22.464Z,101853.78
2024-01-30T13:15:51.463Z,101855.75
2024-01-30T13:18:20.255Z,101855.84
2024-01-30T13:20:48.900Z,101860.59
2024-01-30T13:23:17.438Z,101864.22
2024-01-30T13:25:45.937Z,101865.06
2024-01-30T13:28:15.879Z,101858.88
2024-01-30T13:30:44.421Z,101857.19
2024-01-30T13:33:13.252Z,101851.47
2024-01-30T13:35:41.844Z,101860.34
2024-01-30T13:38:10.337Z,101862.41
2024-01-30T13:40:38.898Z,101864.00
2024-01-30T13:43:07.502Z,101860.59
2024-01-30T13:45:37.409Z,101874.19
2024-01-30T13:48:06.377Z,101864.59
2024-01-30T13:50:35.265Z,101860.59
2024-01-30T13:53:04.692Z,101874.78
2024-01-30T13:55:33.302Z,101869.34
2024-01-30T13:58:02.600Z,101874.69
2024-01-30T14:00:31.163Z,101874.06
2024-01-30T14:03:01.244Z,101872.47
2024-01-30T14:05:30.603Z,101870.16
2024-01-30T14:07:59.806Z,101875.16
2024-01-30T14:10:28.724Z,101866.91
2024-01-30T14:12:57.656Z,101871.63
2024-01-30T14:15:29.096Z,101874.69
2024-01-30T14:18:00.362Z,101864.22
2024-01-30T14:20:29.117Z,101864.22
2024-01-30T14:22:57.953Z,101871.03
2024-01-30T14:25:26.814Z,101861.69
2024-01-30T14:27:55.916Z,101870.81
2024-01-30T14:30:24.690Z,101865.72
2024-01-30T14:32:53.442Z,101867.03
2024-01-30T14:35:23.784Z,101857.19
2024-01-30T14:37:52.398Z,101858.28
2024-01-30T14:40:21.541Z,101858.16
2024-01-30T14:42:50.267Z,101853.78
2024-01-30T14:45:18.952Z,101863.41
2024-01-30T14:47:47.933Z,101867.03
2024-01-30T14:50:17.799Z,101868.13
2024-01-30T14:52:47.735Z,101866.41
2024-01-30T14:55:16.619Z,101861.06
2024-01-30T14:57:46.473Z,101859.25
2024-01-30T15:00:16.872Z,101870.06
2024-01-30T15:02:47.350Z,101858.53
2024-01-30T15:05:16.054Z,101868.13
2024-01-30T15:07:44.918Z,101858.66
2024-01-30T15:10:14.952Z,101859.63
2024-01-30T15:12:43.598Z,101862.44
2024-01-30T15:15:12.315Z,101872.13
2024-01-30T15:17:41.451Z,101870.53
2024-01-30T15:20:10.879Z,101868.59
2024-01-30T15:22:41.364Z,101873.31
2024-01-30T15:25:09.946Z,101871.50
2024-01-30T15:27:40.674Z,101871.75
2024-01-30T15:30:10.024Z,101877.56
2024-01-30T15:32:38.772Z,101869.56
2024-01-30T15:35:09.092Z,101874.19
2024-01-30T15:37:37.907Z,101882.31
2024-01-30T15:40:09.683Z,101882.69
2024-01-30T15:42:39.616Z,101876.59
2024-01-30T15:45:08.477Z,101882.31
2024-01-30T15:47:37.783Z,101893.13
2024-01-30T15:50:07.408Z,101887.53
2024-01-30T15:52:36.091Z,101897.13
2024-01-30T15:55:04.921Z,101897.63
2024-01-30T15:57:33.857Z,101893.50
2024-01-30T16:00:04.605Z,101894.09
2024-01-30T16:02:33.616Z,101897.97
2024-01-30T16:05:03.681Z,101894.69
2024-01-30T16:07:33.945Z,101904.53
2024-01-30T16:10:02.966Z,101897.97
2024-01-30T16:12:31.564Z,101910.47
2024-01-30T16:15:00.069Z,101915.81
2024-01-30T16:17:32.683Z,101917.78
2024-01-30T16:20:03.038Z,101923.72
2024-01-30T16:22:31.689Z,101914.13
2024-01-30T16:25:00.629Z,101925.41
2024-01-30T16:27:29.449Z,101925.66
2024-01-30T16:29:57.968Z,101930.75
2024-01-30T16:32:26.615Z,101922.13
2024-01-30T16:34:56.821Z,101918.84
2024-01-30T16:37:26.269Z,101928.72
2024-01-30T16:39:55.015Z,101926.16
2024-01-30T16:42:23.679Z,101930.78
2024-01-30T16:44:52.231Z,101928.91
2024-01-30T16:47:21.454Z,101931.72
2024-01-30T16:49:50.194Z,101931.97
2024-01-30T16:52:21.025Z,101928.56
2024-01-30T16:54:49.694Z,101935.59
2024-01-30T16:57:18.244Z,101934.88
2024-01-30T16:59:46.812Z,101939.22
2024-01-30T17:02:15.829Z,101942.41
2024-01-30T17:04:44.551Z,101946.03
2024-01-30T17:07:13.202Z,101957.94
2024-01-30T17:09:43.484Z,101955.38
2024-01-30T17:12:14.216Z,101959.97
2024-01-30T17:14:43.422Z,101964.50
2024-01-30T17:17:13.951Z,101964.50
2024-01-30T17:19:43.167Z,101956.59
2024-01-30T17:22:12.304Z,101962.78
2024-01-30T17:24:49.698Z,101952.97
2024-01-30T17:27:19.954Z,101950.06
2024-01-30T17:29:48.828Z,101951.88
2024-01-30T17:32:17.425Z,101949.19
2024-01-30T17:34:46.102Z,101946.28
2024-01-30T17:37:14.813Z,101949.06
2024-01-30T17:39:45.574Z,101950.16
2024-01-30T17:42:14.182Z,101949.31
2024-01-30T17:44:43.581Z,101945.81
2024-01-30T17:47:12.170Z,101943.34
2024-01-30T17:49:40.821Z,101952.34
2024-01-30T17:52:09.891Z,101945.53
2024-01-30T17:54:38.557Z,101946.50
2024-01-30T17:57:08.528Z,101951.13
2024-01-30T17:59:37.744Z,101947.94
2024-01-30T18:02:06.592Z,101953.53
2024-01-30T18:04:35.690Z,101956.31
2024-01-30T18:07:04.513Z,101952.06
2024-01-30T18:09:33.122Z,101957.38
2024-01-30T18:12:01.844Z,101963.72
2024-01-30T18:14:31.792Z,101948.66
2024-01-30T18:17:00.336Z,101957.38
2024-01-30T18:19:28.946Z,101954.72
2024-01-30T18:21:57.598Z,101967.22
2024-01-30T18:24:28.156Z,101973.41
2024-01-30T18:26:57.065Z,101973.41
2024-01-30T18:29:26.428Z,101976.31
2024-01-30T18:31:56.358Z,101976.31
2024-01-30T18:34:25.234Z,101970.88
2024-01-30T18:36:53.915Z,101980.44
2024-01-30T18:39:22.508Z,101979.59
2024-01-30T18:41:51.038Z,101981.41
2024-01-30T18:44:19.614Z,101993.06
2024-01-30T18:46:48.677Z,101993.06
2024-01-30T18:49:18.789Z,102006.53
2024-01-30T18:51:52.970Z,102001.19
2024-01-30T18:54:24.710Z,101996.72
2024-01-30T18:56:54.845Z,102007.47
2024-01-30T18:59:23.518Z,102004.81
2024-01-30T19:01:52.210Z,102009.91
2024-01-30T19:04:22.568Z,102017.09
2024-01-30T19:06:53.156Z,102010.00
2024-01-30T19:09:23.616Z,102017.78
2024-01-30T19:11:52.417Z,102031.97
2024-01-30T19:14:23.684Z,102024.91
2024-01-30T19:16:52.194Z,102034.50
2024-01-30T19:19:22.159Z,102052.38
2024-01-30T19:21:50.738Z,102041.69
2024-01-30T19:24:19.270Z,102045.44
2024-01-30T19:26:49.160Z,102051.88
2024-01-30T19:29:17.768Z,102054.53
2024-01-30T19:31:46.322Z,102060.22
2024-01-30T19:34:14.999Z,102056.19
2024-01-30T19:36:44.892Z,102059.09
2024-01-30T19:39:14.385Z,102057.63
2024-01-30T19:41:45.034Z,102060.53
2024-01-30T19:44:13.902Z,102059.06
2024-01-30T19:46:42.410Z,102060.00
2024-01-30T19:49:11.081Z,102065.72
2024-01-30T19:51:39.805Z,102064.13
2024-01-30T19:54:13.926Z,102075.00
2024-01-30T19:56:42.462Z,102078.66
2024-01-30T19:59:11.182Z,102079.38
2024-01-30T20:01:39.936Z,102074.28
2024-01-30T20:04:08.675Z,102072.56
2024-01-30T20:06:37.287Z,102079.00
2024-01-30T20:09:05.872Z,102085.19
2024-01-30T20:11:35.796Z,102084.31
2024-01-30T20:14:04.493Z,102084.44
2024-01-30T20:16:38.756Z,102091.72
2024-01-30T20:19:08.862Z,102085.66
2024-01-30T20:21:38.148Z,102080.50
2024-01-30T20:24:07.827Z,102089.22
2024-01-30T20:26:37.780Z,102089.03
2024-01-30T20:29:06.331Z,102094.56
2024-01-30T20:31:34.976Z,102100.84
2024-01-30T20:34:03.867Z,102096.50
2024-01-30T20:36:32.430Z,102101.84
2024-01-30T20:39:00.955Z,102105.56
2024-01-30T20:41:29.512Z,102100.38
2024-01-30T20:43:59.334Z,102111.03
2024-01-30T20:46:27.875Z,102107.59
2024-01-30T20:48:56.562Z,102107.59
2024-01-30T20:51:25.253Z,102116.59
2024-01-30T20:53:53.752Z,102115.84
2024-01-30T20:56:22.290Z,102126.50
2024-01-30T20:58:51.148Z,102122.97
2024-01-30T21:01:21.411Z,102131.97
2024-01-30T21:03:49.983Z,102139.22
2024-01-30T21:06:18.549Z,102141.88
2024-01-30T21:08:47.153Z,102142.88
2024-01-30T21:11:15.695Z,102143.81
2024-01-30T21:13:44.172Z,102135.81
2024-01-30T21:16:13.411Z,102138.50
2024-01-30T21:18:44.189Z,102142.97
2024-01-30T21:21:13.210Z,102136.91
2024-01-30T21:23:41.878Z,102138.81
2024-01-30T21:26:10.717Z,102142.44
2024-01-30T21:28:39.307Z,102144.13
2024-01-30T21:31:10.244Z,102137.09
2024-01-30T21:33:38.875Z,102149.69
2024-01-30T21:36:09.493Z,102142.56
2024-01-30T21:38:38.046Z,102136.47
2024-01-30T21:41:06.998Z,102145.31
2024-01-30T21:43:35.618Z,102148.75
2024-01-30T21:46:04.654Z,102150.44
2024-01-30T21:48:33.245Z,102155.88
2024-01-30T21:51:02.083Z,102155.97
2024-01-30T21:53:32.365Z,102153.53
2024-01-30T21:56:00.862Z,102151.84
2024-01-30T21:58:29.383Z,102163.56
2024-01-30T22:00:57.981Z,102158.25
2024-01-30T22:03:26.565Z,102152.28
2024-01-30T22:05:55.077Z,102175.41
2024-01-30T22:08:23.559Z,102169.25
2024-01-30T22:10:53.619Z,102187.06
2024-01-30T22:13:23.440Z,102184.50
2024-01-30T22:15:52.117Z,102182.13
2024-01-30T22:18:20.825Z,102191.97
2024-01-30T22:20:49.406Z,102180.53
2024-01-30T22:23:17.933Z,102182.47
2024-01-30T22:25:46.502Z,102187.91
2024-01-30T22:28:16.469Z,102194.09
2024-01-30T22:30:45.074Z,102189.84
2024-01-30T22:33:13.729Z,102197.84
2024-01-30T22:35:42.487Z,102197.84
2024-01-30T22:38:11.137Z,102205.94
2024-01-30T22:40:39.776Z,102207.31
2024-01-30T22:43:08.541Z,102209.03
2024-01-30T22:45:38.437Z,102217.66
2024-01-30T22:48:07.773Z,102218.91
2024-01-30T22:50:36.273Z,102222.56
2024-01-30T22:53:04.881Z,102214.13
2024-01-30T22:55:33.551Z,102225.19
2024-01-30T22:58:02.096Z,102229.78
2024-01-30T23:00:30.608Z,102223.28
2024-01-30T23:03:00.508Z,102231.78
2024-01-30T23:05:31.173Z,102228.47
2024-01-30T23:07:59.688Z,102236.69
2024-01-30T23:10:28.256Z,102239.44
2024-01-30T23:12:56.755Z,102238.56
2024-01-30T23:15:25.400Z,102238.41
2024-01-30T23:17:54.021Z,102245.63
2024-01-30T23:20:23.912Z,102249.34
2024-01-30T23:22:52.658Z,102256.41
2024-01-30T23:25:21.171Z,102262.03
2024-01-30T23:27:49.674Z,102261.38
2024-01-30T23:30:18.613Z,102263.94
2024-01-30T23:32:47.572Z,102262.09
2024-01-30T23:35:16.305Z,102269.44
2024-01-30T23:37:46.258Z,102271.38
2024-01-30T23:40:15.423Z,102268.72
2024-01-30T23:42:44.281Z,102277.84
2024-01-30T23:45:12.848Z,102274.25
2024-01-30T23:47:41.455Z,102278.78
2024-01-30T23:50:10.708Z,102276.25
2024-01-30T23:52:43.532Z,102279.66
2024-01-30T23:55:13.684Z,102279.84
2024-01-30T23:57:42.195Z,102286.97
